Time;durP1;ratioP1;P1;durP2;ratioP2;P2;SDS_P1;SDS_P2;PMS_P1;PMS_P2;Temp;Humidity;BMP_temperature;BMP_pressure;BME280_temperature;BME280_humidity;BME280_pressure;Samples;Min_cycle;Max_cycle;Signal;HPM_P1;HPM_P2
2021/03/29 00:00:06;;;;;;;2.13;0.98;;;25.50;37.70;;;;;;5088377;28;20429;-59
2021/03/29 00:02:32;;;;;;;1.83;0.88;;;25.60;37.80;;;;;;5075432;28;20040;-63
2021/03/29 00:04:57;;;;;;;2.20;1.02;;;25.50;37.80;;;;;;5066685;28;20970;-63
2021/03/29 00:07:24;;;;;;;1.50;0.90;;;25.60;37.90;;;;;;5077498;28;20035;-61
2021/03/29 00:09:50;;;;;;;2.92;1.00;;;25.50;37.70;;;;;;5087110;28;20024;-61
2021/03/29 00:12:18;;;;;;;1.75;1.00;;;25.50;37.90;;;;;;5088211;28;20060;-63
2021/03/29 00:14:44;;;;;;;1.83;0.93;;;25.60;37.80;;;;;;5089126;28;20032;-61
2021/03/29 00:17:13;;;;;;;1.50;0.90;;;25.50;37.80;;;;;;5087986;28;20030;-61
2021/03/29 00:19:39;;;;;;;1.67;1.00;;;25.50;37.70;;;;;;5069800;28;20040;-63
2021/03/29 00:22:06;;;;;;;1.85;0.98;;;25.60;37.90;;;;;;5087132;28;21131;-62
2021/03/29 00:24:33;;;;;;;1.77;0.90;;;25.50;37.80;;;;;;5087514;28;20525;-63
2021/03/29 00:26:59;;;;;;;2.17;1.17;;;25.50;37.80;;;;;;5087474;28;20035;-62
2021/03/29 00:29:25;;;;;;;1.55;0.82;;;25.60;37.80;;;;;;5086228;28;20077;-62
2021/03/29 00:31:52;;;;;;;1.95;1.10;;;25.50;37.70;;;;;;5086640;28;20048;-62
2021/03/29 00:34:18;;;;;;;1.35;0.90;;;25.50;37.70;;;;;;5085508;28;20020;-62
2021/03/29 00:36:45;;;;;;;1.85;0.90;;;25.50;37.80;;;;;;5087277;28;20056;-60
2021/03/29 00:39:12;;;;;;;1.85;1.00;;;25.50;37.70;;;;;;5081800;28;20470;-61
2021/03/29 00:41:39;;;;;;;0.98;0.88;;;25.50;37.70;;;;;;5089274;28;20012;-61
2021/03/29 00:44:06;;;;;;;1.77;0.90;;;25.50;37.70;;;;;;5066682;28;20016;-62
2021/03/29 00:46:32;;;;;;;2.03;1.10;;;25.60;37.80;;;;;;5087567;28;20462;-62
2021/03/29 00:48:58;;;;;;;1.75;0.90;;;25.60;37.80;;;;;;5087898;28;20024;-64
2021/03/29 00:51:29;;;;;;;2.50;0.90;;;25.60;37.80;;;;;;5080807;28;20035;-62
2021/03/29 00:54:03;;;;;;;1.77;0.80;;;25.60;37.80;;;;;;5076435;28;20580;-62
2021/03/29 00:56:30;;;;;;;2.25;0.70;;;25.50;37.80;;;;;;5085378;28;20024;-62
2021/03/29 00:58:57;;;;;;;2.35;1.00;;;25.50;37.90;;;;;;5079251;28;20448;-63
2021/03/29 01:01:29;;;;;;;2.05;0.80;;;25.40;37.80;;;;;;5083804;28;20059;-63
2021/03/29 01:03:58;;;;;;;1.58;0.80;;;25.40;37.90;;;;;;5084198;28;20055;-63
2021/03/29 01:06:28;;;;;;;2.28;0.88;;;25.40;37.90;;;;;;5066501;28;20090;-63
2021/03/29 01:08:57;;;;;;;1.55;0.80;;;25.40;38.00;;;;;;5084428;28;20024;-63
2021/03/29 01:11:26;;;;;;;0.95;0.70;;;25.30;37.90;;;;;;5076432;28;20380;-62
2021/03/29 01:14:06;;;;;;;2.83;1.00;;;25.30;38.00;;;;;;5066651;28;20185;-62
2021/03/29 01:16:37;;;;;;;1.67;0.90;;;25.30;38.00;;;;;;5076090;28;20040;-63
2021/03/29 01:19:09;;;;;;;1.52;0.90;;;25.30;38.00;;;;;;5085493;28;20042;-62
2021/03/29 01:21:52;;;;;;;1.42;0.80;;;25.20;38.00;;;;;;5082006;28;20017;-63
2021/03/29 01:24:25;;;;;;;1.52;0.90;;;25.20;38.00;;;;;;5082018;28;20362;-63
2021/03/29 01:26:52;;;;;;;2.00;0.70;;;25.20;38.00;;;;;;5078894;28;20021;-62
2021/03/29 01:29:18;;;;;;;1.23;0.70;;;25.20;38.00;;;;;;5086288;28;20031;-63
2021/03/29 01:31:45;;;;;;;1.75;0.88;;;25.10;38.00;;;;;;5082111;28;20044;-63
2021/03/29 01:34:14;;;;;;;1.52;0.70;;;25.10;38.10;;;;;;5068478;28;20032;-62
2021/03/29 01:36:42;;;;;;;1.27;0.80;;;25.10;38.00;;;;;;5086967;28;20031;-62
2021/03/29 01:39:10;;;;;;;2.30;0.93;;;25.10;38.10;;;;;;5082263;28;20486;-62
2021/03/29 01:41:36;;;;;;;1.33;1.00;;;25.10;38.10;;;;;;5083143;28;20024;-62
2021/03/29 01:44:02;;;;;;;1.10;0.65;;;25.00;38.10;;;;;;5077965;28;20078;-63
2021/03/29 01:46:29;;;;;;;1.25;0.80;;;25.00;38.10;;;;;;5078820;28;20035;-62
2021/03/29 01:48:55;;;;;;;1.52;0.70;;;25.00;38.10;;;;;;5081188;28;20112;-62
2021/03/29 01:51:21;;;;;;;1.27;0.90;;;25.00;38.10;;;;;;5070268;28;20029;-63
2021/03/29 01:53:48;;;;;;;1.05;0.70;;;25.00;38.20;;;;;;5083351;28;20032;-62
2021/03/29 01:56:14;;;;;;;1.10;0.70;;;24.90;38.10;;;;;;5076045;28;20518;-62
2021/03/29 01:58:41;;;;;;;1.60;0.80;;;24.90;38.20;;;;;;5078235;28;20108;-63
2021/03/29 02:01:12;;;;;;;1.83;0.80;;;24.80;38.20;;;;;;5070910;28;20043;-62
2021/03/29 02:03:39;;;;;;;0.80;0.60;;;24.80;38.20;;;;;;5072572;28;20082;-63
2021/03/29 02:06:06;;;;;;;1.42;0.70;;;24.80;38.20;;;;;;5081853;28;20039;-62
2021/03/29 02:08:33;;;;;;;2.35;0.80;;;24.80;38.30;;;;;;5083617;28;20028;-63
2021/03/29 02:11:00;;;;;;;1.52;0.80;;;24.80;38.30;;;;;;5086482;28;20032;-63
2021/03/29 02:13:36;;;;;;;1.10;0.80;;;24.80;38.30;;;;;;5075537;28;20119;-63
2021/03/29 02:16:08;;;;;;;1.20;0.77;;;24.80;38.30;;;;;;5074107;28;20137;-63
2021/03/29 02:18:39;;;;;;;1.40;0.60;;;24.80;38.30;;;;;;5073205;28;20104;-63
2021/03/29 02:21:09;;;;;;;1.05;0.80;;;24.70;38.30;;;;;;5069281;28;20478;-63
2021/03/29 02:23:36;;;;;;;1.65;0.73;;;24.70;38.40;;;;;;5077843;28;20082;-63
2021/03/29 02:26:04;;;;;;;0.98;0.70;;;24.60;38.30;;;;;;5078627;28;20040;-63
2021/03/29 02:28:31;;;;;;;0.90;0.70;;;24.70;38.40;;;;;;5072394;28;20103;-62
2021/03/29 02:31:00;;;;;;;0.90;0.70;;;24.60;38.40;;;;;;5074649;28;20575;-63
2021/03/29 02:33:26;;;;;;;0.75;0.70;;;24.60;38.40;;;;;;5090196;28;20055;-63
2021/03/29 02:35:53;;;;;;;0.77;0.70;;;24.60;38.40;;;;;;5077820;28;20047;-62
2021/03/29 02:38:19;;;;;;;0.75;0.75;;;24.60;38.40;;;;;;5076069;28;20367;-62
2021/03/29 02:40:49;;;;;;;1.35;0.80;;;24.60;38.40;;;;;;5091266;28;20381;-62
2021/03/29 02:43:15;;;;;;;1.63;0.70;;;24.60;38.40;;;;;;5089763;28;20074;-63
2021/03/29 02:45:53;;;;;;;0.80;0.70;;;24.50;38.40;;;;;;5083273;28;20151;-62
2021/03/29 02:48:21;;;;;;;1.88;0.70;;;24.50;38.40;;;;;;5086127;28;20020;-63
2021/03/29 02:50:48;;;;;;;1.02;0.80;;;24.50;38.50;;;;;;5084517;28;20028;-63
2021/03/29 02:53:18;;;;;;;0.95;0.70;;;24.50;38.40;;;;;;5088781;28;20861;-62
2021/03/29 02:55:45;;;;;;;1.58;0.80;;;24.50;38.50;;;;;;5087870;28;20016;-62
2021/03/29 02:58:14;;;;;;;2.05;0.90;;;24.40;38.40;;;;;;5085869;28;20050;-63
2021/03/29 03:00:40;;;;;;;1.15;0.70;;;24.40;38.50;;;;;;5088812;28;20443;-62
2021/03/29 03:03:06;;;;;;;0.88;0.70;;;24.40;39.00;;;;;;5089435;28;20024;-63
2021/03/29 03:05:34;;;;;;;1.30;0.80;;;24.40;38.50;;;;;;5087249;28;20030;-63
2021/03/29 03:08:01;;;;;;;1.10;0.80;;;24.40;38.50;;;;;;5088518;28;20028;-63
2021/03/29 03:10:30;;;;;;;1.85;0.82;;;24.30;38.50;;;;;;5089449;28;20086;-63
2021/03/29 03:12:58;;;;;;;0.93;0.63;;;24.30;38.50;;;;;;5068759;28;20025;-62
2021/03/29 03:15:27;;;;;;;1.25;0.80;;;24.30;38.60;;;;;;5078658;28;20044;-62
2021/03/29 03:17:54;;;;;;;0.80;0.60;;;24.30;38.60;;;;;;5078324;28;20040;-64
2021/03/29 03:20:21;;;;;;;1.08;0.70;;;24.30;38.60;;;;;;5088258;28;20356;-62
2021/03/29 03:22:53;;;;;;;0.60;0.60;;;24.30;38.60;;;;;;5089191;28;20470;-63
2021/03/29 03:25:24;;;;;;;1.30;0.70;;;24.30;38.60;;;;;;5087710;28;20035;-62
2021/03/29 03:27:51;;;;;;;1.73;0.80;;;24.20;38.60;;;;;;5089446;28;20024;-64
2021/03/29 03:30:32;;;;;;;1.15;0.70;;;24.20;38.60;;;;;;5088402;28;20020;-63
2021/03/29 03:32:59;;;;;;;1.33;0.70;;;24.20;38.60;;;;;;5068305;28;20076;-62
2021/03/29 03:35:26;;;;;;;1.00;0.70;;;24.20;38.60;;;;;;5087766;28;20020;-63
2021/03/29 03:37:57;;;;;;;0.70;0.70;;;24.20;38.70;;;;;;5070987;28;20025;-63
2021/03/29 03:40:24;;;;;;;0.77;0.60;;;24.20;38.60;;;;;;5085199;28;20051;-63
2021/03/29 03:42:51;;;;;;;1.20;0.70;;;24.20;38.70;;;;;;5086205;28;20028;-63
2021/03/29 03:45:20;;;;;;;1.65;0.80;;;24.10;38.60;;;;;;5066983;28;20024;-63
2021/03/29 03:47:47;;;;;;;1.15;0.70;;;24.10;38.70;;;;;;5085576;28;20473;-64
2021/03/29 03:50:14;;;;;;;0.95;0.60;;;24.20;38.70;;;;;;5084340;28;20109;-63
2021/03/29 03:52:41;;;;;;;1.10;0.65;;;24.10;38.70;;;;;;5089438;28;20028;-62
2021/03/29 03:55:14;;;;;;;1.00;0.70;;;24.10;38.70;;;;;;5087154;28;20031;-63
2021/03/29 03:57:40;;;;;;;0.70;0.60;;;24.10;38.70;;;;;;5087198;28;20024;-62
2021/03/29 04:00:09;;;;;;;1.25;0.70;;;24.00;38.70;;;;;;5085240;28;20028;-63
2021/03/29 04:02:35;;;;;;;1.23;0.80;;;24.00;38.70;;;;;;5072425;28;20031;-63
2021/03/29 04:05:05;;;;;;;1.40;0.70;;;24.00;38.70;;;;;;5079110;28;20028;-63
2021/03/29 04:07:31;;;;;;;0.93;0.80;;;24.00;38.80;;;;;;5075223;28;20024;-62
2021/03/29 04:10:03;;;;;;;0.80;0.60;;;24.00;38.80;;;;;;5072923;28;20089;-63
2021/03/29 04:12:29;;;;;;;1.38;0.68;;;24.00;38.80;;;;;;5088890;28;20377;-63
2021/03/29 04:14:54;;;;;;;1.75;0.70;;;24.00;38.80;;;;;;5084639;28;20036;-63
2021/03/29 04:17:20;;;;;;;1.15;0.70;;;23.90;39.30;;;;;;5089083;28;20459;-62
2021/03/29 04:19:46;;;;;;;1.10;0.60;;;23.90;38.70;;;;;;5087092;28;20040;-63
2021/03/29 04:22:11;;;;;;;0.85;0.70;;;23.90;38.70;;;;;;5088937;28;20031;-63
2021/03/29 04:24:37;;;;;;;1.00;0.70;;;23.90;38.70;;;;;;5075505;28;20417;-62
2021/03/29 04:27:03;;;;;;;1.02;0.70;;;23.90;38.80;;;;;;5073391;28;20088;-62
2021/03/29 04:29:29;;;;;;;1.67;0.95;;;23.90;38.80;;;;;;5089048;28;20019;-63
2021/03/29 04:31:55;;;;;;;0.88;0.68;;;23.90;38.80;;;;;;5086976;28;20040;-62
2021/03/29 04:34:20;;;;;;;1.33;0.70;;;23.90;38.80;;;;;;5085937;28;20114;-62
2021/03/29 04:36:46;;;;;;;1.73;0.80;;;23.80;38.80;;;;;;5088540;28;20032;-63
2021/03/29 04:39:12;;;;;;;0.90;0.70;;;23.90;38.80;;;;;;5086848;28;20483;-63
2021/03/29 04:41:37;;;;;;;1.25;0.73;;;23.80;38.80;;;;;;5081432;28;20499;-63
2021/03/29 04:44:03;;;;;;;0.98;0.80;;;23.80;38.80;;;;;;5084779;28;20030;-63
2021/03/29 04:46:29;;;;;;;1.05;0.73;;;23.80;38.80;;;;;;5087754;28;20099;-62
2021/03/29 04:48:54;;;;;;;1.00;0.70;;;23.80;38.80;;;;;;5089538;28;20357;-63
2021/03/29 04:51:20;;;;;;;1.55;0.80;;;23.80;38.80;;;;;;5097024;28;20032;-62
2021/03/29 04:53:45;;;;;;;1.38;0.70;;;23.80;38.90;;;;;;5084037;28;20016;-63
2021/03/29 04:56:11;;;;;;;1.45;0.80;;;23.80;38.90;;;;;;5076398;28;20056;-63
2021/03/29 04:58:37;;;;;;;1.05;0.70;;;23.70;38.80;;;;;;5067779;28;20044;-63
2021/03/29 05:01:03;;;;;;;1.55;0.80;;;23.70;38.80;;;;;;5081588;28;20064;-62
2021/03/29 05:03:28;;;;;;;1.33;0.70;;;23.70;38.90;;;;;;5087646;28;20024;-63
2021/03/29 05:05:54;;;;;;;1.20;0.63;;;23.70;38.90;;;;;;5078899;28;20032;-63
2021/03/29 05:08:20;;;;;;;1.10;0.65;;;23.70;38.80;;;;;;5060078;28;20044;-63
2021/03/29 05:10:45;;;;;;;1.23;0.70;;;23.70;38.90;;;;;;5077806;28;20146;-63
2021/03/29 05:13:11;;;;;;;1.05;0.80;;;23.70;38.90;;;;;;5067579;28;20040;-64
2021/03/29 05:15:37;;;;;;;0.85;0.63;;;23.70;38.90;;;;;;5074855;28;20036;-62
2021/03/29 05:18:02;;;;;;;0.95;0.63;;;23.60;38.90;;;;;;5082627;28;20042;-63
2021/03/29 05:20:28;;;;;;;0.77;0.60;;;23.70;38.90;;;;;;5087085;28;20036;-63
2021/03/29 05:22:54;;;;;;;0.88;0.70;;;23.60;38.90;;;;;;5086041;28;20104;-63
2021/03/29 05:25:19;;;;;;;1.13;0.70;;;23.60;38.90;;;;;;5081491;28;20012;-63
2021/03/29 05:27:45;;;;;;;0.70;0.60;;;23.60;38.90;;;;;;5082339;28;20032;-63
2021/03/29 05:30:12;;;;;;;0.90;0.70;;;23.60;38.90;;;;;;5084206;28;20028;-63
2021/03/29 05:32:38;;;;;;;1.60;0.73;;;23.60;38.90;;;;;;5082823;28;20063;-62
2021/03/29 05:35:05;;;;;;;0.90;0.80;;;23.60;38.90;;;;;;5076124;28;20837;-63
2021/03/29 05:37:31;;;;;;;0.85;0.70;;;23.60;38.90;;;;;;5081541;28;20393;-63
2021/03/29 05:39:58;;;;;;;0.75;0.63;;;23.60;39.00;;;;;;5079284;28;20031;-62
2021/03/29 05:42:27;;;;;;;0.90;0.70;;;23.60;39.00;;;;;;5084196;28;20043;-63
2021/03/29 05:45:02;;;;;;;1.58;0.70;;;23.50;38.90;;;;;;5073952;28;20477;-63
2021/03/29 05:47:29;;;;;;;1.40;0.80;;;23.50;38.90;;;;;;5083403;28;20017;-62
2021/03/29 05:49:59;;;;;;;1.45;0.65;;;23.50;38.90;;;;;;5080136;28;20039;-63
2021/03/29 05:52:24;;;;;;;0.80;0.70;;;23.50;39.00;;;;;;5084697;28;20344;-63
2021/03/29 05:54:50;;;;;;;1.20;0.80;;;23.50;39.00;;;;;;5066785;28;20032;-62
2021/03/29 05:57:17;;;;;;;0.90;0.70;;;23.50;38.90;;;;;;5087095;28;20032;-63
2021/03/29 05:59:43;;;;;;;1.02;0.70;;;23.50;39.00;;;;;;5087455;28;20111;-62
2021/03/29 06:02:23;;;;;;;1.08;0.70;;;23.50;39.00;;;;;;5084090;27;20128;-63
2021/03/29 06:04:49;;;;;;;0.90;0.80;;;23.40;38.90;;;;;;5075372;28;20066;-62
2021/03/29 06:07:23;;;;;;;0.73;0.60;;;23.40;38.90;;;;;;5088891;28;20370;-62
2021/03/29 06:09:54;;;;;;;0.70;0.60;;;23.40;38.90;;;;;;5074731;28;20482;-63
2021/03/29 06:12:21;;;;;;;1.58;0.90;;;23.40;38.90;;;;;;5092323;28;20481;-63
2021/03/29 06:14:57;;;;;;;1.48;0.80;;;23.40;38.90;;;;;;5089821;28;20023;-62
2021/03/29 06:17:23;;;;;;;1.42;0.80;;;23.40;39.00;;;;;;5067232;28;20203;-63
2021/03/29 06:19:52;;;;;;;1.40;0.70;;;23.40;39.00;;;;;;5073353;28;20218;-63
2021/03/29 06:22:23;;;;;;;0.70;0.70;;;23.40;39.00;;;;;;5088408;28;20513;-63
2021/03/29 06:24:52;;;;;;;0.75;0.50;;;23.40;39.00;;;;;;5079422;28;20425;-62
2021/03/29 06:27:19;;;;;;;0.80;0.60;;;23.40;39.00;;;;;;5093249;28;20513;-62
2021/03/29 06:29:45;;;;;;;0.73;0.57;;;23.40;39.00;;;;;;5075004;28;20028;-63
2021/03/29 06:32:11;;;;;;;1.48;0.73;;;23.30;39.00;;;;;;5069093;28;20105;-63
2021/03/29 06:34:36;;;;;;;1.60;0.80;;;23.30;39.00;;;;;;5088241;28;20051;-62
2021/03/29 06:37:06;;;;;;;1.38;0.70;;;23.30;39.00;;;;;;5061376;28;20060;-63
2021/03/29 06:39:36;;;;;;;1.10;0.70;;;23.30;39.00;;;;;;5091504;28;20028;-63
2021/03/29 06:42:02;;;;;;;1.02;0.80;;;23.30;39.00;;;;;;5092615;28;20087;-63
2021/03/29 06:44:30;;;;;;;1.00;0.75;;;23.30;39.60;;;;;;5073063;28;20061;-62
2021/03/29 06:47:12;;;;;;;1.98;0.80;;;23.30;39.10;;;;;;5091086;28;20024;-63
2021/03/29 06:49:39;;;;;;;0.82;0.70;;;23.30;39.10;;;;;;5074135;28;20028;-62
2021/03/29 06:52:23;;;;;;;0.80;0.63;;;23.30;39.10;;;;;;5088866;28;20452;-62
2021/03/29 06:54:49;;;;;;;1.05;0.77;;;23.30;39.10;;;;;;5085671;28;20024;-62
2021/03/29 06:57:29;;;;;;;1.15;0.70;;;23.30;39.20;;;;;;5092428;28;20051;-62
2021/03/29 06:59:55;;;;;;;;;;;23.30;39.30;;;;;;5091716;28;20036;-62
2021/03/29 07:02:46;;;;;;;1.02;0.70;;;23.20;39.20;;;;;;5090991;28;20262;-63
2021/03/29 07:05:12;;;;;;;1.48;0.82;;;23.20;39.20;;;;;;5077369;28;20438;-63
2021/03/29 07:07:39;;;;;;;1.35;0.70;;;23.30;39.30;;;;;;5092230;28;20069;-62
2021/03/29 07:10:07;;;;;;;0.88;0.65;;;23.20;39.20;;;;;;5064382;28;20039;-62
2021/03/29 07:12:40;;;;;;;1.05;0.70;;;23.30;39.30;;;;;;5090529;28;20069;-62
2021/03/29 07:15:10;;;;;;;0.88;0.68;;;23.30;39.30;;;;;;5085862;28;20640;-62
2021/03/29 07:17:37;;;;;;;0.90;0.70;;;23.20;39.20;;;;;;5067246;28;20370;-62
2021/03/29 07:20:08;;;;;;;1.27;0.80;;;23.20;39.20;;;;;;5083100;28;20070;-63
2021/03/29 07:22:39;;;;;;;1.70;0.80;;;23.20;39.20;;;;;;5088411;28;20127;-62
2021/03/29 07:25:08;;;;;;;1.33;0.75;;;23.20;39.20;;;;;;5065535;28;20051;-61
2021/03/29 07:27:40;;;;;;;0.75;0.60;;;23.20;39.20;;;;;;5082782;28;20466;-62
2021/03/29 07:30:07;;;;;;;0.80;0.60;;;23.20;39.20;;;;;;5067576;28;20074;-63
2021/03/29 07:32:36;;;;;;;0.85;0.70;;;23.20;39.20;;;;;;5082482;28;20147;-61
2021/03/29 07:35:03;;;;;;;1.25;0.70;;;23.20;39.20;;;;;;5081245;28;20035;-62
2021/03/29 07:37:34;;;;;;;1.17;0.70;;;23.20;39.20;;;;;;5087178;28;20081;-62
2021/03/29 07:40:04;;;;;;;0.73;0.70;;;23.20;39.20;;;;;;5069816;28;20035;-62
2021/03/29 07:42:29;;;;;;;1.00;0.73;;;23.20;39.20;;;;;;5066127;28;20032;-62
2021/03/29 07:45:04;;;;;;;0.60;0.60;;;23.20;39.20;;;;;;5066826;28;20024;-62
2021/03/29 07:47:52;;;;;;;0.88;0.70;;;23.20;39.70;;;;;;5088141;28;20402;-62
2021/03/29 07:50:19;;;;;;;1.25;0.77;;;23.20;39.10;;;;;;5088578;28;20064;-62
2021/03/29 07:52:53;;;;;;;1.02;0.70;;;23.20;39.10;;;;;;5065588;28;20151;-62
2021/03/29 07:55:37;;;;;;;1.20;0.77;;;23.20;39.10;;;;;;5083329;28;20035;-62
2021/03/29 07:58:08;;;;;;;1.05;0.77;;;23.20;39.10;;;;;;5070925;28;20032;-62
2021/03/29 08:00:34;;;;;;;1.17;0.77;;;23.20;39.10;;;;;;5080651;28;20524;-62
2021/03/29 08:03:13;;;;;;;1.10;0.70;;;23.20;39.10;;;;;;5080805;28;20032;-63
2021/03/29 08:05:42;;;;;;;0.90;0.73;;;23.20;39.00;;;;;;5079465;28;20122;-62
2021/03/29 08:08:26;;;;;;;1.50;0.80;;;23.20;39.00;;;;;;5082660;28;20024;-62
2021/03/29 08:11:14;;;;;;;0.85;0.80;;;23.20;39.00;;;;;;5086779;28;20036;-62
2021/03/29 08:13:56;;;;;;;1.15;0.70;;;23.20;39.00;;;;;;5065430;28;20039;-63
2021/03/29 08:16:22;;;;;;;1.10;0.90;;;23.20;39.00;;;;;;5063375;28;20120;-62
2021/03/29 08:19:25;;;;;;;1.00;0.77;;;23.20;39.00;;;;;;5078111;28;20423;-62
2021/03/29 08:22:02;;;;;;;1.23;0.80;;;23.20;39.00;;;;;;5079452;28;20190;-63
2021/03/29 08:24:36;;;;;;;1.02;0.80;;;23.20;39.10;;;;;;5083043;28;20020;-62
2021/03/29 08:27:07;;;;;;;1.27;0.90;;;23.20;39.10;;;;;;5081391;28;20032;-62
2021/03/29 08:29:35;;;;;;;1.75;0.90;;;23.20;39.60;;;;;;5079878;28;20024;-63
2021/03/29 08:32:11;;;;;;;0.77;0.77;;;23.20;39.10;;;;;;5077087;28;20036;-61
2021/03/29 08:34:42;;;;;;;0.60;0.60;;;23.20;39.10;;;;;;5083984;28;20031;-62
2021/03/29 08:37:09;;;;;;;1.17;0.80;;;23.20;39.10;;;;;;5086124;28;20063;-62
2021/03/29 08:39:41;;;;;;;1.42;0.80;;;23.20;39.60;;;;;;5084440;28;20055;-62
2021/03/29 08:42:08;;;;;;;0.95;0.80;;;23.20;39.10;;;;;;5081366;28;20025;-63
2021/03/29 08:44:37;;;;;;;1.27;0.70;;;23.20;39.10;;;;;;5083875;28;20030;-63
2021/03/29 08:47:11;;;;;;;1.52;0.90;;;23.20;39.10;;;;;;5086934;28;20028;-62
2021/03/29 08:49:37;;;;;;;1.00;0.70;;;23.20;39.10;;;;;;5079205;28;20024;-62
2021/03/29 08:52:03;;;;;;;1.00;0.90;;;23.20;39.00;;;;;;5094060;28;20035;-62
2021/03/29 08:54:29;;;;;;;1.10;0.80;;;23.20;39.10;;;;;;5086150;28;20031;-63
2021/03/29 08:57:05;;;;;;;1.33;0.80;;;23.20;39.00;;;;;;5081225;28;20047;-63
2021/03/29 08:59:31;;;;;;;1.30;0.88;;;23.20;39.00;;;;;;5086427;28;20031;-63
2021/03/29 09:02:12;;;;;;;1.60;0.88;;;23.20;39.00;;;;;;5085412;28;20123;-62
2021/03/29 09:04:54;;;;;;;1.40;0.80;;;23.20;39.00;;;;;;5084966;28;20027;-62
2021/03/29 09:07:26;;;;;;;0.95;0.73;;;23.20;39.00;;;;;;5085611;28;20019;-62
2021/03/29 09:09:52;;;;;;;0.85;0.70;;;23.20;39.00;;;;;;5081585;28;20020;-62
2021/03/29 09:12:28;;;;;;;1.30;0.80;;;23.20;39.00;;;;;;5086136;28;20042;-62
2021/03/29 09:14:54;;;;;;;1.40;0.85;;;23.20;39.00;;;;;;5067995;28;20060;-62
2021/03/29 09:17:28;;;;;;;1.15;0.80;;;23.20;39.00;;;;;;5086049;28;20063;-62
2021/03/29 09:19:54;;;;;;;0.90;0.80;;;23.20;39.00;;;;;;5086934;28;20066;-62
2021/03/29 09:22:32;;;;;;;2.10;1.00;;;23.20;39.00;;;;;;5085765;28;20508;-63
2021/03/29 09:24:59;;;;;;;1.40;0.90;;;23.20;39.00;;;;;;5080400;28;20029;-62
2021/03/29 09:27:33;;;;;;;1.23;0.80;;;23.20;39.00;;;;;;5086314;28;20031;-61
2021/03/29 09:30:00;;;;;;;1.38;0.90;;;23.20;39.00;;;;;;5086911;28;20051;-61
2021/03/29 09:32:26;;;;;;;1.17;0.80;;;23.20;39.00;;;;;;5084151;28;20044;-62
2021/03/29 09:34:53;;;;;;;1.25;0.85;;;23.20;39.00;;;;;;5076067;28;20463;-61
2021/03/29 09:37:28;;;;;;;1.45;1.00;;;23.20;38.90;;;;;;5065987;28;20046;-62
2021/03/29 09:39:59;;;;;;;2.13;1.00;;;23.20;38.90;;;;;;5086792;28;20779;-63
2021/03/29 09:42:49;;;;;;;1.90;1.00;;;23.20;38.90;;;;;;5065837;28;20027;-62
2021/03/29 09:45:29;;;;;;;2.20;0.93;;;23.20;38.80;;;;;;5068332;28;20515;-62
2021/03/29 09:48:13;;;;;;;1.38;0.90;;;23.20;38.80;;;;;;5068646;28;20056;-63
2021/03/29 09:50:44;;;;;;;1.88;1.05;;;23.20;38.80;;;;;;5072615;28;20035;-63
2021/03/29 09:53:11;;;;;;;1.88;0.93;;;23.20;38.80;;;;;;5083500;28;20024;-62
2021/03/29 09:55:50;;;;;;;1.45;0.95;;;23.20;38.80;;;;;;5085666;28;20028;-62
2021/03/29 09:58:36;;;;;;;1.83;1.00;;;23.20;38.80;;;;;;5078992;28;20020;-62
2021/03/29 10:01:05;;;;;;;1.80;0.93;;;23.20;38.80;;;;;;5080722;28;20071;-62
2021/03/29 10:03:31;;;;;;;1.77;1.10;;;23.20;38.90;;;;;;5083090;28;20024;-62
2021/03/29 10:05:57;;;;;;;1.27;0.90;;;23.20;38.90;;;;;;5079327;28;20165;-61
2021/03/29 10:08:28;;;;;;;2.00;1.08;;;23.20;38.90;;;;;;5063056;28;20522;-61
2021/03/29 10:11:02;;;;;;;1.38;0.90;;;23.20;38.90;;;;;;5080850;28;20032;-62
2021/03/29 10:13:34;;;;;;;1.27;0.90;;;23.20;38.90;;;;;;5082081;28;20020;-61
2021/03/29 10:16:17;;;;;;;1.95;1.00;;;23.20;38.90;;;;;;5084218;28;20404;-62
2021/03/29 10:18:43;;;;;;;1.50;0.90;;;23.20;38.90;;;;;;5082139;28;20036;-62
2021/03/29 10:21:09;;;;;;;2.35;1.10;;;23.20;39.00;;;;;;5080760;28;20097;-62
2021/03/29 10:23:41;;;;;;;1.30;0.90;;;23.20;38.90;;;;;;5084543;28;20056;-62
2021/03/29 10:26:30;;;;;;;1.30;0.90;;;23.20;39.00;;;;;;5081693;28;20119;-62
2021/03/29 10:28:58;;;;;;;1.70;1.00;;;23.20;39.00;;;;;;5060975;28;20111;-62
2021/03/29 10:31:25;;;;;;;1.85;0.98;;;23.20;38.90;;;;;;5077519;28;20038;-62
2021/03/29 10:33:50;;;;;;;1.83;0.90;;;23.20;39.00;;;;;;5075997;28;20466;-62
2021/03/29 10:36:19;;;;;;;2.08;0.90;;;23.20;39.00;;;;;;5064613;28;20042;-61
2021/03/29 10:38:45;;;;;;;1.23;0.90;;;23.10;38.90;;;;;;5076188;28;20074;-63
2021/03/29 10:41:11;;;;;;;2.08;1.20;;;23.20;39.00;;;;;;5081821;28;20503;-61
2021/03/29 10:43:38;;;;;;;1.85;1.00;;;23.20;39.00;;;;;;5072585;28;20031;-62
2021/03/29 10:46:04;;;;;;;1.08;0.82;;;23.20;39.60;;;;;;5072309;28;20020;-62
2021/03/29 10:48:30;;;;;;;1.42;0.90;;;23.20;39.00;;;;;;5082053;28;20028;-61
2021/03/29 10:50:57;;;;;;;1.88;0.90;;;23.20;39.00;;;;;;5083393;28;20028;-62
2021/03/29 10:53:23;;;;;;;1.35;0.90;;;23.20;39.00;;;;;;5083913;28;20082;-61
2021/03/29 10:55:49;;;;;;;1.58;1.00;;;23.20;39.00;;;;;;5085970;28;20032;-61
2021/03/29 10:58:15;;;;;;;2.47;1.05;;;23.20;39.00;;;;;;5085659;28;20024;-61
2021/03/29 11:00:41;;;;;;;2.28;1.10;;;23.20;39.10;;;;;;5084091;28;20492;-61
2021/03/29 11:03:06;;;;;;;1.77;0.95;;;23.20;39.00;;;;;;5077765;28;20300;-62
2021/03/29 11:05:32;;;;;;;1.92;1.00;;;23.20;39.00;;;;;;5087291;28;20020;-61
2021/03/29 11:07:58;;;;;;;1.73;0.93;;;23.20;39.10;;;;;;5072858;28;20036;-62
2021/03/29 11:10:23;;;;;;;1.40;0.90;;;23.20;39.10;;;;;;5076226;28;20107;-62
2021/03/29 11:12:49;;;;;;;1.75;0.98;;;23.20;39.10;;;;;;5068282;28;20475;-62
2021/03/29 11:15:15;;;;;;;1.90;1.13;;;23.20;39.10;;;;;;5081818;28;20557;-61
2021/03/29 11:17:41;;;;;;;1.85;1.10;;;23.20;39.10;;;;;;5086185;28;20045;-62
2021/03/29 11:20:07;;;;;;;1.77;1.00;;;23.20;39.10;;;;;;5087002;28;20101;-62
2021/03/29 11:22:33;;;;;;;2.47;0.90;;;23.20;39.10;;;;;;5069167;28;20032;-61
2021/03/29 11:24:59;;;;;;;1.80;0.93;;;23.20;39.10;;;;;;5077668;28;20163;-61
2021/03/29 11:27:24;;;;;;;2.55;0.90;;;23.20;39.10;;;;;;5070931;28;20103;-62
2021/03/29 11:29:50;;;;;;;1.73;0.90;;;23.20;39.10;;;;;;5079884;28;20095;-62
2021/03/29 11:32:17;;;;;;;2.22;1.00;;;23.20;39.10;;;;;;5074764;28;20036;-61
2021/03/29 11:34:42;;;;;;;1.75;1.00;;;23.20;39.10;;;;;;5087740;28;20042;-61
2021/03/29 11:37:08;;;;;;;1.67;1.00;;;23.20;39.10;;;;;;5074696;28;20037;-62
2021/03/29 11:39:34;;;;;;;1.83;1.10;;;23.20;39.10;;;;;;5083535;28;20106;-61
2021/03/29 11:42:00;;;;;;;1.75;0.90;;;23.20;39.10;;;;;;5086050;28;20040;-62
2021/03/29 11:44:26;;;;;;;1.40;0.77;;;23.20;39.00;;;;;;5078278;28;20024;-61
2021/03/29 11:46:52;;;;;;;2.58;1.02;;;23.20;39.10;;;;;;5057587;28;20325;-61
2021/03/29 11:49:18;;;;;;;1.17;0.80;;;23.20;39.00;;;;;;5087149;28;20060;-61
2021/03/29 11:51:43;;;;;;;1.73;1.00;;;23.20;39.10;;;;;;5086084;28;20035;-61
2021/03/29 11:54:09;;;;;;;1.50;0.90;;;23.20;39.00;;;;;;5084482;28;20042;-62
2021/03/29 11:56:38;;;;;;;1.95;1.10;;;23.20;39.00;;;;;;5085811;28;20103;-61
2021/03/29 11:59:05;;;;;;;2.83;1.00;;;23.20;39.00;;;;;;5083731;28;20038;-62
2021/03/29 12:04:18;;;;;;;1.17;0.88;;;23.20;39.00;;;;;;5081148;28;20024;-62
2021/03/29 12:06:51;;;;;;;1.90;0.95;;;23.20;38.90;;;;;;5087450;28;20012;-61
2021/03/29 12:09:38;;;;;;;1.38;0.90;;;23.30;39.00;;;;;;5085526;28;20016;-62
2021/03/29 12:12:05;;;;;;;1.90;1.00;;;23.30;39.00;;;;;;5067507;28;20032;-62
2021/03/29 12:14:33;;;;;;;1.63;0.90;;;23.20;38.80;;;;;;5085234;28;20032;-61
2021/03/29 12:17:01;;;;;;;1.88;1.00;;;23.30;38.90;;;;;;5067832;28;20040;-62
2021/03/29 12:19:28;;;;;;;1.38;0.90;;;23.30;38.90;;;;;;5084648;28;20415;-62
2021/03/29 12:22:01;;;;;;;1.55;0.90;;;23.30;38.90;;;;;;5086108;28;20105;-62
2021/03/29 12:24:33;;;;;;;2.00;0.98;;;23.30;39.40;;;;;;5067419;28;20024;-61
2021/03/29 12:27:02;;;;;;;2.40;1.02;;;23.30;38.90;;;;;;5086441;28;20035;-62
2021/03/29 12:29:40;;;;;;;2.65;1.10;;;23.30;38.80;;;;;;5088229;28;20066;-62
2021/03/29 12:32:17;;;;;;;1.83;0.80;;;23.30;38.80;;;;;;5085204;28;20106;-62
2021/03/29 12:34:49;;;;;;;2.08;1.08;;;23.30;38.80;;;;;;5085799;28;20020;-61
2021/03/29 12:37:17;;;;;;;1.55;0.90;;;23.30;38.80;;;;;;5084974;28;20092;-62
2021/03/29 12:39:57;;;;;;;2.08;1.10;;;23.30;38.80;;;;;;5063705;28;20035;-61
2021/03/29 12:42:24;;;;;;;1.30;0.90;;;23.30;38.80;;;;;;5063762;28;20089;-61
2021/03/29 12:44:50;;;;;;;1.98;0.90;;;23.30;38.80;;;;;;5086579;28;20443;-62
2021/03/29 12:47:17;;;;;;;1.88;0.90;;;23.30;38.90;;;;;;5085904;28;20113;-62
2021/03/29 12:49:43;;;;;;;1.27;0.80;;;23.30;38.90;;;;;;5085806;28;20485;-61
2021/03/29 12:52:09;;;;;;;1.30;0.80;;;23.30;38.90;;;;;;5085831;28;20122;-61
2021/03/29 12:54:35;;;;;;;2.45;0.95;;;23.30;38.80;;;;;;5085039;28;20036;-62
2021/03/29 12:57:02;;;;;;;1.38;0.80;;;23.30;38.90;;;;;;5067417;28;20115;-63
2021/03/29 12:59:29;;;;;;;2.33;1.15;;;23.30;38.90;;;;;;5061559;28;20197;-62